PWSweather.com
Personal Weather Stations
Station Observations
WISCHPK61
Green Bay Schmitt Park, Green Bay, WI 54311

Green Bay Schmitt ParkGreen Bay, WI 54311

Lat: 44.514277, Lon: -87.935067

Elevation: 735

Station Type: Acu Rite Pro Weather Center model 02032C

http://greenbayweathercam.com

High Low Average
Temperature 25.7°F-3.5°C 19.9°F-6.7°C 22.5°F-5.3°C
Dew Point 25.5°F-3.6°C 10.9°F-11.7°C 19.9°F-6.7°C
Winds 2.3 mph 3.7 kmh Calm Calm Calm SWCalm SW
Wind Gusts 5.8 mph9.3 kmh -- --
Humidity 99% 64% 91%
Pressure 29.59 in1002.0 mb 29.24 in990.2 mb -
Precipitation 0.00 in0.0 mm - -
Hour Temp Dew Point Humidity Winds Wind Gusts Pressure Precip Precip Rate Daily Precip Total
12:00 AM 20.8°F-6.2°C 20.6°F-6.3°C 99% Calm Calm -- 29.61 in1002.7 mb - 0.00 in0.0 mm 0.00 in0.0 mm
01:00 AM 21.2°F-6.0°C 10.9°F-11.7°C 64% Calm Calm -- 29.59 in1002.0 mb - 0.00 in0.0 mm 0.00 in0.0 mm
02:00 AM 21.2°F-6.0°C 21.0°F-6.1°C 99% Calm Calm -- 29.59 in1002.0 mb - 0.00 in0.0 mm 0.00 in0.0 mm
03:00 AM 20.8°F-6.2°C 17.5°F-8.1°C 87% Calm Calm -- 29.56 in1001.0 mb - 0.00 in0.0 mm 0.00 in0.0 mm
04:00 AM 21.9°F-5.6°C 21.7°F-5.7°C 99% 1.2 mph SE1.9 kmh SE 1.2 mph1.9 kmh 29.51 in999.3 mb - 0.00 in0.0 mm 0.00 in0.0 mm
05:00 AM 22.5°F-5.3°C 20.0°F-6.7°C 90% 2.3 mph SSE3.7 kmh SSE 5.8 mph9.3 kmh 29.48 in998.3 mb - 0.00 in0.0 mm 0.00 in0.0 mm
06:00 AM 23.2°F-4.9°C 23.0°F-5.0°C 99% 2.3 mph S3.7 kmh S -- 29.44 in997.0 mb - 0.00 in0.0 mm 0.00 in0.0 mm
07:00 AM 23.7°F-4.6°C 23.5°F-4.7°C 99% Calm Calm -- 29.45 in997.3 mb - 0.00 in0.0 mm 0.00 in0.0 mm
08:00 AM 24.1°F-4.4°C 23.9°F-4.5°C 99% 1.2 mph SE1.9 kmh SE 2.3 mph3.7 kmh 29.41 in995.9 mb - 0.00 in0.0 mm 0.00 in0.0 mm
09:00 AM 24.3°F-4.3°C 24.1°F-4.4°C 99% Calm Calm -- 29.40 in995.6 mb - 0.00 in0.0 mm 0.00 in0.0 mm
10:00 AM 24.3°F-4.3°C 24.1°F-4.4°C 99% Calm Calm -- 29.39 in995.3 mb - 0.00 in0.0 mm 0.00 in0.0 mm
11:00 AM 25.0°F-3.9°C 17.9°F-7.8°C 74% Calm Calm -- 29.38 in994.9 mb - 0.00 in0.0 mm 0.00 in0.0 mm
12:00 PM 25.7°F-3.5°C 25.5°F-3.6°C 99% Calm Calm -- 29.35 in993.9 mb - 0.00 in0.0 mm 0.00 in0.0 mm
01:00 PM 25.2°F-3.8°C 19.0°F-7.2°C 77% Calm Calm -- 29.33 in993.2 mb - 0.00 in0.0 mm 0.00 in0.0 mm
02:00 PM 24.4°F-4.2°C 14.3°F-9.8°C 65% Calm Calm -- 29.30 in992.2 mb - 0.00 in0.0 mm 0.00 in0.0 mm
03:00 PM 23.4°F-4.8°C 19.3°F-7.1°C 84% Calm Calm -- 29.29 in991.9 mb - 0.00 in0.0 mm 0.00 in0.0 mm
04:00 PM 22.6°F-5.2°C 22.4°F-5.3°C 99% Calm Calm -- 29.28 in991.5 mb - 0.00 in0.0 mm 0.00 in0.0 mm
05:00 PM 22.2°F-5.4°C 19.5°F-6.9°C 89% Calm Calm -- 29.27 in991.2 mb - 0.00 in0.0 mm 0.00 in0.0 mm
06:00 PM 21.4°F-5.9°C 18.1°F-7.7°C 87% Calm Calm -- 29.27 in991.2 mb - 0.00 in0.0 mm 0.00 in0.0 mm
07:00 PM 21.0°F-6.1°C 20.8°F-6.2°C 99% Calm Calm -- 29.27 in991.2 mb - 0.00 in0.0 mm 0.00 in0.0 mm
08:00 PM 20.7°F-6.3°C 20.5°F-6.4°C 99% Calm Calm -- 29.25 in990.5 mb - 0.00 in0.0 mm 0.00 in0.0 mm
09:00 PM 20.5°F-6.4°C 20.3°F-6.5°C 99% Calm Calm -- 29.26 in990.9 mb - 0.00 in0.0 mm 0.00 in0.0 mm
10:00 PM 20.1°F-6.6°C 14.3°F-9.8°C 78% Calm Calm -- 29.25 in990.5 mb - 0.00 in0.0 mm 0.00 in0.0 mm
11:00 PM 19.9°F-6.7°C 19.7°F-6.8°C 99% Calm Calm -- 29.25 in990.5 mb - 0.00 in0.0 mm 0.00 in0.0 mm